createdAt,value
2022-09-23T05:29:55.046Z,4.22
2022-09-23T05:31:27.811Z,4.90
2022-09-23T05:32:59.357Z,4.93
2022-09-23T05:34:30.908Z,4.13
2022-09-23T05:36:03.121Z,3.38
2022-09-23T05:37:34.729Z,3.70
2022-09-23T05:39:07.022Z,3.58
2022-09-23T05:40:38.743Z,2.63
2022-09-23T05:42:10.319Z,5.85
2022-09-23T05:43:42.051Z,3.63
2022-09-23T05:45:13.653Z,3.60
2022-09-23T05:46:45.267Z,4.28
2022-09-23T05:48:18.524Z,5.32
2022-09-23T05:49:59.624Z,4.97
2022-09-23T05:51:32.578Z,4.95
2022-09-23T05:53:04.198Z,4.72
2022-09-23T05:54:36.290Z,6.00
2022-09-23T05:56:08.035Z,5.25
2022-09-23T05:57:39.679Z,4.70
2022-09-23T05:59:11.222Z,4.32
2022-09-23T06:00:43.130Z,4.43
2022-09-23T06:02:14.737Z,4.63
2022-09-23T06:03:47.109Z,4.88
2022-09-23T06:05:18.661Z,4.95
2022-09-23T06:06:50.372Z,5.32
2022-09-23T06:08:22.606Z,5.10
2022-09-23T06:09:54.232Z,5.50
2022-09-23T06:11:26.023Z,4.72
2022-09-23T06:12:57.650Z,4.45
2022-09-23T06:14:29.203Z,4.55
2022-09-23T06:16:02.315Z,4.40
2022-09-23T06:17:33.914Z,4.65
2022-09-23T06:19:06.451Z,5.65
2022-09-23T06:20:38.397Z,4.50
2022-09-23T06:22:09.962Z,4.97
2022-09-23T06:23:42.245Z,4.25
2022-09-23T06:25:13.840Z,4.23
2022-09-23T06:26:45.401Z,4.63
2022-09-23T06:28:16.952Z,5.45
2022-09-23T06:29:48.852Z,4.35
2022-09-23T06:31:20.472Z,5.47
2022-09-23T06:32:53.357Z,5.28
2022-09-23T06:34:24.893Z,5.40
2022-09-23T06:35:59.846Z,5.30
2022-09-23T06:37:32.329Z,5.65
2022-09-23T06:39:03.962Z,4.60
2022-09-23T06:40:35.563Z,5.28
2022-09-23T06:42:07.342Z,5.38
2022-09-23T06:43:38.894Z,4.28
2022-09-23T06:45:12.298Z,5.82
2022-09-23T06:46:43.962Z,4.82
2022-09-23T06:48:15.573Z,5.20
2022-09-23T06:49:47.114Z,4.63
2022-09-23T06:51:18.667Z,4.50
2022-09-23T06:52:51.755Z,3.88
2022-09-23T06:54:23.327Z,4.07
2022-09-23T06:56:01.617Z,4.95
2022-09-23T06:57:33.162Z,3.80
2022-09-23T06:59:04.772Z,4.80
2022-09-23T07:00:36.740Z,4.72
2022-09-23T07:02:11.352Z,4.97
2022-09-23T07:03:43.410Z,5.05
2022-09-23T07:05:17.871Z,4.20
2022-09-23T07:06:49.410Z,5.13
2022-09-23T07:08:21.008Z,5.68
2022-09-23T07:09:52.535Z,4.70
2022-09-23T07:11:24.078Z,4.65
2022-09-23T07:12:55.761Z,3.38
2022-09-23T07:14:27.365Z,4.63
2022-09-23T07:15:59.317Z,4.95
2022-09-23T07:17:30.972Z,6.38
2022-09-23T07:19:02.813Z,4.82
2022-09-23T07:20:34.382Z,5.25
2022-09-23T07:22:05.926Z,4.18
2022-09-23T07:23:37.669Z,5.97
2022-09-23T07:25:09.353Z,5.30
2022-09-23T07:26:45.427Z,5.85
2022-09-23T07:28:18.018Z,4.50
2022-09-23T07:29:49.645Z,5.45
2022-09-23T07:31:36.497Z,4.18
2022-09-23T07:33:26.157Z,4.60
2022-09-23T07:35:01.311Z,4.25
2022-09-23T07:36:32.974Z,4.00
2022-09-23T07:38:04.551Z,5.00
2022-09-23T07:39:36.343Z,4.05
2022-09-23T07:41:09.209Z,5.30
2022-09-23T07:42:40.824Z,4.90
2022-09-23T07:44:12.438Z,3.90
2022-09-23T07:45:44.007Z,4.00
2022-09-23T07:47:15.559Z,3.63
2022-09-23T07:48:47.137Z,4.35
2022-09-23T07:50:18.695Z,4.53
2022-09-23T07:51:50.271Z,4.72
2022-09-23T07:53:22.825Z,4.23
2022-09-23T07:54:54.373Z,3.53
2022-09-23T07:56:28.166Z,4.70
2022-09-23T07:57:59.712Z,3.60
2022-09-23T07:59:31.260Z,3.72
2022-09-23T08:01:07.498Z,4.80
2022-09-23T08:02:40.252Z,4.00
2022-09-23T08:04:12.914Z,3.27
2022-09-23T08:05:44.476Z,4.13
2022-09-23T08:07:16.044Z,4.82
2022-09-23T08:08:52.544Z,4.13
2022-09-23T08:10:24.811Z,3.58
2022-09-23T08:11:56.356Z,4.53
2022-09-23T08:13:30.609Z,3.47
2022-09-23T08:15:02.220Z,4.32
2022-09-23T08:16:33.757Z,4.25
2022-09-23T08:18:05.436Z,3.80
2022-09-23T08:19:36.973Z,4.45
2022-09-23T08:21:08.534Z,4.00
2022-09-23T08:22:40.084Z,3.40
2022-09-23T08:24:13.872Z,3.30
2022-09-23T08:25:46.855Z,3.38
2022-09-23T08:27:18.590Z,3.60
2022-09-23T08:28:50.712Z,3.30
2022-09-23T08:30:22.330Z,5.00
2022-09-23T08:31:54.032Z,3.50
2022-09-23T08:33:25.610Z,3.42
2022-09-23T08:34:57.212Z,3.40
2022-09-23T08:36:28.783Z,3.42
2022-09-23T08:38:00.425Z,3.22
2022-09-23T08:39:32.028Z,2.95
2022-09-23T08:41:25.407Z,3.50
2022-09-23T08:42:56.940Z,4.30
2022-09-23T08:44:53.624Z,3.67
2022-09-23T08:46:28.132Z,3.05
2022-09-23T08:48:13.561Z,3.00
2022-09-23T08:49:53.530Z,3.60
2022-09-23T08:51:35.884Z,3.30
2022-09-23T08:53:26.642Z,3.90
2022-09-23T08:55:00.446Z,3.45
2022-09-23T08:56:32.050Z,3.30
2022-09-23T08:58:26.609Z,3.40
2022-09-23T08:59:58.454Z,4.00
2022-09-23T09:01:29.996Z,3.38
2022-09-23T09:03:01.531Z,3.10
2022-09-23T09:04:40.174Z,3.55
2022-09-23T09:06:28.445Z,3.22
2022-09-23T09:08:00.040Z,3.60
2022-09-23T09:09:37.973Z,3.03
2022-09-23T09:11:09.644Z,3.10
2022-09-23T09:12:42.584Z,2.97
2022-09-23T09:14:56.928Z,3.40
2022-09-23T09:16:59.474Z,3.13
2022-09-23T09:18:32.085Z,3.50
2022-09-23T09:20:15.789Z,2.95
2022-09-23T09:21:49.254Z,3.00
2022-09-23T09:23:28.533Z,3.30
2022-09-23T09:25:09.220Z,3.60
2022-09-23T09:26:40.759Z,3.50
2022-09-23T09:28:38.541Z,3.88
2022-09-23T09:30:13.326Z,4.50
2022-09-23T09:31:49.092Z,3.05
2022-09-23T09:33:23.072Z,3.77
2022-09-23T09:34:57.819Z,3.95
2022-09-23T09:36:40.551Z,3.50
2022-09-23T09:38:12.103Z,3.58
2022-09-23T09:39:43.650Z,2.83
2022-09-23T09:41:16.344Z,3.78
2022-09-23T09:42:48.981Z,3.88
2022-09-23T09:44:41.086Z,3.05
2022-09-23T09:46:24.793Z,2.75
2022-09-23T09:48:01.721Z,3.40
2022-09-23T09:49:53.945Z,3.00
2022-09-23T09:51:26.968Z,3.08
2022-09-23T09:53:15.050Z,2.83
2022-09-23T09:54:46.608Z,3.13
2022-09-23T09:56:18.591Z,4.30
2022-09-23T09:57:53.054Z,3.50
2022-09-23T09:59:28.081Z,2.97
2022-09-23T10:00:59.687Z,4.05
2022-09-23T10:02:33.510Z,2.90
2022-09-23T10:04:34.912Z,4.20
2022-09-23T10:06:18.015Z,3.35
2022-09-23T10:07:49.693Z,3.67
2022-09-23T10:09:21.236Z,3.05
2022-09-23T10:10:53.562Z,4.20
2022-09-23T10:12:25.415Z,4.82
2022-09-23T10:13:59.953Z,4.30
2022-09-23T10:15:32.688Z,4.70
2022-09-23T10:17:05.613Z,4.85
2022-09-23T10:18:46.819Z,5.40
2022-09-23T10:20:18.448Z,4.68
2022-09-23T10:21:53.784Z,4.07
2022-09-23T10:23:27.207Z,4.32
2022-09-23T10:25:01.320Z,6.07
2022-09-23T10:26:41.818Z,6.47
2022-09-23T10:28:32.441Z,4.40
2022-09-23T10:30:26.569Z,4.30
2022-09-23T10:32:25.876Z,4.05
2022-09-23T10:34:22.488Z,4.40
2022-09-23T10:35:54.057Z,4.50
2022-09-23T10:37:32.200Z,5.00
2022-09-23T10:39:04.506Z,5.15
2022-09-23T10:40:37.835Z,6.38
2022-09-23T10:42:31.874Z,5.03
2022-09-23T10:44:27.060Z,4.07
2022-09-23T10:46:00.210Z,4.70
2022-09-23T10:47:41.326Z,5.20
2022-09-23T10:49:37.149Z,5.20
2022-09-23T10:51:14.661Z,3.88
2022-09-23T10:53:03.135Z,4.85
2022-09-23T10:54:55.347Z,3.85
2022-09-23T10:56:46.535Z,5.47
2022-09-23T10:58:35.601Z,3.47
2022-09-23T11:00:15.966Z,4.50
2022-09-23T11:01:47.523Z,4.40
2022-09-23T11:03:36.257Z,4.05
2022-09-23T11:05:26.037Z,4.53
2022-09-23T11:07:04.307Z,4.03
2022-09-23T11:08:35.756Z,5.07
2022-09-23T11:10:44.831Z,4.68
2022-09-23T11:12:46.321Z,5.18
2022-09-23T11:14:50.475Z,3.47
2022-09-23T11:16:40.412Z,4.68
2022-09-23T11:18:14.974Z,4.40
2022-09-23T11:19:58.481Z,4.13
2022-09-23T11:21:57.190Z,3.80
2022-09-23T11:24:07.697Z,4.75
2022-09-23T11:25:54.524Z,4.20
2022-09-23T11:27:49.999Z,3.50
2022-09-23T11:29:55.667Z,3.28
2022-09-23T11:31:45.882Z,3.55
2022-09-23T11:33:32.555Z,4.05
2022-09-23T11:35:09.867Z,4.55
2022-09-23T11:37:01.113Z,3.60
2022-09-23T11:38:46.588Z,3.50
2022-09-23T11:40:21.554Z,4.20
2022-09-23T11:41:54.225Z,4.03
2022-09-23T11:43:29.839Z,4.13
2022-09-23T11:45:12.999Z,4.10
2022-09-23T11:47:06.207Z,4.57
2022-09-23T11:49:21.317Z,3.65
2022-09-23T11:50:59.931Z,3.80
2022-09-23T11:52:35.960Z,2.95
2022-09-23T11:54:17.241Z,3.55
2022-09-23T11:56:48.346Z,3.63
2022-09-23T11:58:26.255Z,3.08
2022-09-23T12:00:02.830Z,3.20
2022-09-23T12:01:45.713Z,2.80
2022-09-23T12:03:44.151Z,2.75
2022-09-23T12:05:17.723Z,3.30
2022-09-23T12:07:05.882Z,2.95
2022-09-23T12:08:38.271Z,2.20
2022-09-23T12:10:10.252Z,2.72
2022-09-23T12:11:56.669Z,3.90
2022-09-23T12:13:36.532Z,3.83
2022-09-23T12:15:22.732Z,4.18
2022-09-23T12:17:27.831Z,2.45
2022-09-23T12:19:05.332Z,3.38
2022-09-23T12:20:48.656Z,3.05
2022-09-23T12:22:25.829Z,3.33
2022-09-23T12:24:34.911Z,2.53
2022-09-23T12:26:08.076Z,2.70
2022-09-23T12:27:41.034Z,2.53
2022-09-23T12:29:13.472Z,2.75
2022-09-23T12:30:45.510Z,2.30
2022-09-23T12:32:18.074Z,3.22
2022-09-23T12:33:50.879Z,2.60
2022-09-23T12:35:27.427Z,2.97
2022-09-23T12:37:05.278Z,3.70
2022-09-23T12:38:49.044Z,3.67
2022-09-23T12:40:28.714Z,2.80
2022-09-23T12:42:02.173Z,2.78
2022-09-23T12:43:34.679Z,4.00
2022-09-23T12:45:38.443Z,4.78
2022-09-23T12:47:16.039Z,3.85
2022-09-23T12:48:54.464Z,2.70
2022-09-23T12:50:48.599Z,4.90
2022-09-23T12:52:20.091Z,3.58
2022-09-23T12:53:52.274Z,3.17
2022-09-23T12:55:23.742Z,3.75
2022-09-23T12:56:55.174Z,2.90
2022-09-23T12:58:56.935Z,5.78
2022-09-23T13:00:33.499Z,2.45
2022-09-23T13:02:24.258Z,4.03
2022-09-23T13:03:57.219Z,2.17
2022-09-23T13:05:28.898Z,2.65
2022-09-23T13:07:07.962Z,3.00
2022-09-23T13:08:40.525Z,3.70
2022-09-23T13:10:33.840Z,2.72
2022-09-23T13:12:07.826Z,2.70
2022-09-23T13:13:44.322Z,2.25
2022-09-23T13:15:19.917Z,2.72
2022-09-23T13:16:54.118Z,3.47
2022-09-23T13:18:58.431Z,2.00
2022-09-23T13:20:35.492Z,3.07
2022-09-23T13:22:07.928Z,2.90
2022-09-23T13:23:39.481Z,4.28
2022-09-23T13:25:17.666Z,3.00
2022-09-23T13:26:50.838Z,2.65
2022-09-23T13:28:57.637Z,2.53
2022-09-23T13:30:29.203Z,3.20
2022-09-23T13:32:01.264Z,2.45
2022-09-23T13:33:38.401Z,1.90
2022-09-23T13:35:15.312Z,2.30
2022-09-23T13:36:47.775Z,2.85
2022-09-23T13:38:24.221Z,2.80
2022-09-23T13:40:08.161Z,2.45
2022-09-23T13:41:39.841Z,2.23
2022-09-23T13:43:17.411Z,2.35
2022-09-23T13:44:48.962Z,2.08
2022-09-23T13:46:21.875Z,2.55
2022-09-23T13:47:55.235Z,2.10
2022-09-23T13:49:27.102Z,2.90
2022-09-23T13:50:58.706Z,2.90
2022-09-23T13:52:31.748Z,2.75
2022-09-23T13:54:04.370Z,2.80
2022-09-23T13:55:36.571Z,2.30
2022-09-23T13:57:26.595Z,2.50
2022-09-23T13:59:30.975Z,3.38
2022-09-23T14:01:02.832Z,3.00
2022-09-23T14:02:34.502Z,3.42
2022-09-23T14:04:06.190Z,4.75
2022-09-23T14:05:38.198Z,2.92
2022-09-23T14:07:11.159Z,3.80
2022-09-23T14:08:49.319Z,3.55
2022-09-23T14:10:21.995Z,5.03
2022-09-23T14:11:53.548Z,3.15
2022-09-23T14:13:29.779Z,2.92
2022-09-23T14:15:01.319Z,2.70
2022-09-23T14:16:35.322Z,4.82
2022-09-23T14:18:06.907Z,3.70
2022-09-23T14:19:38.516Z,4.33
2022-09-23T14:21:28.797Z,2.70
2022-09-23T14:23:07.387Z,2.93
2022-09-23T14:24:38.942Z,2.80
2022-09-23T14:26:11.954Z,2.90
2022-09-23T14:27:43.786Z,2.95
2022-09-23T14:29:20.099Z,2.83
2022-09-23T14:30:52.866Z,2.37
2022-09-23T14:32:25.269Z,3.05
2022-09-23T14:33:56.863Z,3.35
2022-09-23T14:35:39.411Z,2.00
2022-09-23T14:37:35.880Z,2.63
2022-09-23T14:39:08.904Z,2.60
2022-09-23T14:40:56.637Z,2.90
2022-09-23T14:42:29.555Z,3.97
2022-09-23T14:44:01.818Z,3.83
2022-09-23T14:45:35.206Z,3.25
2022-09-23T14:47:11.611Z,2.70
2022-09-23T14:48:43.827Z,2.58
2022-09-23T14:50:20.827Z,3.88
2022-09-23T14:51:59.317Z,2.65
2022-09-23T14:53:41.051Z,2.92
2022-09-23T14:55:15.828Z,3.00
2022-09-23T14:56:47.441Z,3.25
2022-09-23T14:58:22.243Z,3.92
2022-09-23T15:00:00.973Z,4.30
2022-09-23T15:01:36.984Z,3.35
2022-09-23T15:03:14.090Z,3.45
2022-09-23T15:04:45.719Z,2.55
2022-09-23T15:06:17.277Z,3.67
2022-09-23T15:07:50.756Z,3.25
2022-09-23T15:09:40.946Z,2.93
2022-09-23T15:11:12.486Z,2.75
2022-09-23T15:12:44.954Z,4.35
2022-09-23T15:14:36.856Z,2.42
2022-09-23T15:16:08.121Z,2.90
2022-09-23T15:17:39.758Z,1.67
2022-09-23T15:19:19.242Z,2.50
2022-09-23T15:20:54.334Z,2.33
2022-09-23T15:22:26.087Z,2.83
2022-09-23T15:23:57.625Z,3.30
2022-09-23T15:25:34.209Z,3.78
2022-09-23T15:27:32.674Z,3.13
2022-09-23T15:29:05.008Z,3.60
2022-09-23T15:30:37.024Z,3.17
2022-09-23T15:32:08.586Z,3.42
2022-09-23T15:33:40.156Z,2.80
2022-09-23T15:35:16.144Z,2.92
2022-09-23T15:36:47.749Z,3.92
2022-09-23T15:38:19.304Z,4.00
2022-09-23T15:39:50.859Z,6.00
2022-09-23T15:41:22.448Z,3.50
2022-09-23T15:42:55.878Z,3.40
2022-09-23T15:44:27.431Z,2.60
2022-09-23T15:45:59.318Z,2.95
2022-09-23T15:47:30.921Z,3.33
2022-09-23T15:49:04.465Z,3.17
2022-09-23T15:50:36.091Z,3.63
2022-09-23T15:52:09.388Z,9.52
2022-09-23T15:53:40.964Z,12.77
2022-09-23T15:55:19.151Z,21.33
2022-09-23T15:56:50.795Z,38.30
2022-09-23T15:58:22.515Z,31.75
2022-09-23T15:59:54.063Z,29.67
2022-09-23T16:01:33.016Z,31.30
2022-09-23T16:03:04.811Z,28.73
2022-09-23T16:04:36.397Z,28.90
2022-09-23T16:06:10.927Z,27.10
2022-09-23T16:07:42.488Z,26.17
2022-09-23T16:09:15.136Z,24.40
2022-09-23T16:10:46.732Z,25.33
2022-09-23T16:12:18.340Z,26.40
2022-09-23T16:13:50.324Z,25.63
2022-09-23T16:15:22.659Z,18.60
2022-09-23T16:16:54.244Z,22.15
2022-09-23T16:18:25.885Z,22.02
2022-09-23T16:19:57.416Z,21.70
2022-09-23T16:21:29.093Z,19.92
2022-09-23T16:23:04.708Z,21.70
2022-09-23T16:24:36.259Z,20.67
2022-09-23T16:26:15.449Z,18.27
2022-09-23T16:27:47.203Z,19.83
2022-09-23T16:29:18.764Z,17.67
2022-09-23T16:30:50.357Z,17.57
2022-09-23T16:32:22.386Z,17.95
2022-09-23T16:33:53.966Z,18.48
2022-09-23T16:35:25.816Z,16.90
2022-09-23T16:36:57.370Z,18.60
2022-09-23T16:38:29.477Z,17.48
2022-09-23T16:40:01.183Z,16.92
2022-09-23T16:41:32.820Z,17.98
2022-09-23T16:43:04.370Z,19.33
2022-09-23T16:44:35.909Z,16.58
2022-09-23T16:46:10.787Z,16.47
2022-09-23T16:47:43.135Z,14.38
2022-09-23T16:49:14.778Z,14.95
2022-09-23T16:50:46.326Z,16.35
2022-09-23T16:52:17.949Z,17.13
2022-09-23T16:53:50.028Z,15.40
2022-09-23T16:55:22.119Z,12.18
2022-09-23T16:56:53.629Z,13.70
2022-09-23T16:58:25.348Z,13.35
2022-09-23T16:59:56.997Z,13.77
2022-09-23T17:01:28.864Z,11.95
2022-09-23T17:03:00.594Z,14.63
2022-09-23T17:04:32.191Z,15.25
2022-09-23T17:06:07.953Z,12.38
2022-09-23T17:07:39.781Z,13.15
2022-09-23T17:09:11.506Z,13.00
2022-09-23T17:10:44.310Z,11.65
2022-09-23T17:12:25.492Z,12.63
2022-09-23T17:13:57.058Z,11.02
2022-09-23T17:15:28.611Z,12.27
2022-09-23T17:17:00.152Z,9.88
2022-09-23T17:18:31.751Z,11.33
2022-09-23T17:20:04.670Z,10.27
2022-09-23T17:21:36.331Z,9.70
2022-09-23T17:23:07.887Z,10.30
2022-09-23T17:24:39.545Z,10.23
2022-09-23T17:26:11.073Z,9.25
2022-09-23T17:27:42.633Z,11.52
2022-09-23T17:29:14.168Z,9.98
2022-09-23T17:30:45.820Z,8.30
2022-09-23T17:32:17.369Z,10.10
2022-09-23T17:33:48.941Z,8.73
2022-09-23T17:35:20.984Z,8.82
2022-09-23T17:36:52.618Z,10.40
2022-09-23T17:38:28.671Z,8.50
2022-09-23T17:40:00.790Z,7.73
2022-09-23T17:41:32.345Z,8.45
2022-09-23T17:43:03.928Z,7.35
2022-09-23T17:44:35.492Z,9.10
2022-09-23T17:46:08.804Z,9.32
2022-09-23T17:47:41.784Z,9.73
2022-09-23T17:49:13.631Z,8.10
2022-09-23T17:50:56.801Z,7.45
2022-09-23T17:52:28.407Z,7.63
2022-09-23T17:53:59.983Z,7.35
2022-09-23T17:55:31.539Z,6.68
2022-09-23T17:57:03.089Z,6.43
2022-09-23T17:58:36.654Z,9.00
2022-09-23T18:00:09.954Z,7.50
2022-09-23T18:01:43.259Z,6.75
2022-09-23T18:03:17.846Z,6.28
2022-09-23T18:04:49.392Z,6.50
2022-09-23T18:06:22.124Z,7.68
2022-09-23T18:07:53.679Z,6.53
2022-09-23T18:09:25.317Z,6.75
2022-09-23T18:10:56.871Z,6.93
2022-09-23T18:12:28.543Z,6.53
2022-09-23T18:14:20.884Z,7.70
2022-09-23T18:15:52.695Z,6.22
2022-09-23T18:17:24.310Z,6.87
2022-09-23T18:18:57.301Z,5.97
2022-09-23T18:20:29.151Z,6.20
2022-09-23T18:22:00.727Z,6.78
2022-09-23T18:23:32.315Z,5.53
2022-09-23T18:25:22.712Z,7.45
2022-09-23T18:26:55.694Z,6.10
2022-09-23T18:28:32.637Z,6.32
2022-09-23T18:30:06.810Z,7.28
2022-09-23T18:31:38.819Z,5.00
2022-09-23T18:33:10.589Z,7.03
2022-09-23T18:34:42.202Z,7.23
2022-09-23T18:36:20.634Z,5.32
2022-09-23T18:37:52.190Z,5.78
2022-09-23T18:39:25.087Z,5.78
2022-09-23T18:40:57.418Z,6.75
2022-09-23T18:42:29.487Z,5.25
2022-09-23T18:44:01.652Z,6.18
2022-09-23T18:45:33.235Z,6.03
2022-09-23T18:47:04.894Z,6.05
2022-09-23T18:48:36.546Z,5.80
2022-09-23T18:50:11.136Z,6.38
2022-09-23T18:51:52.734Z,6.05
2022-09-23T18:53:24.304Z,5.13
2022-09-23T18:54:55.852Z,5.53
2022-09-23T18:56:38.798Z,5.93
2022-09-23T18:58:10.349Z,5.43
2022-09-23T18:59:41.955Z,6.70
2022-09-23T19:01:13.702Z,6.18
2022-09-23T19:02:45.311Z,6.20
2022-09-23T19:04:18.406Z,6.22
2022-09-23T19:05:49.970Z,5.32
2022-09-23T19:07:21.573Z,5.45
2022-09-23T19:08:53.631Z,5.82
2022-09-23T19:10:25.262Z,5.63
2022-09-23T19:11:57.147Z,6.47
2022-09-23T19:13:29.824Z,6.15
2022-09-23T19:15:01.410Z,5.57
2022-09-23T19:16:33.445Z,6.38
2022-09-23T19:18:05.067Z,5.77
2022-09-23T19:19:36.771Z,6.05
2022-09-23T19:21:09.979Z,4.78
2022-09-23T19:22:45.545Z,6.45
2022-09-23T19:24:17.213Z,5.55
2022-09-23T19:25:48.969Z,5.53
2022-09-23T19:27:20.564Z,4.93
2022-09-23T19:28:54.004Z,5.30
2022-09-23T19:30:25.655Z,5.28
2022-09-23T19:31:57.313Z,5.63
2022-09-23T19:33:28.914Z,5.45
2022-09-23T19:35:00.552Z,5.18
2022-09-23T19:36:35.737Z,5.40
2022-09-23T19:38:07.320Z,5.32
2022-09-23T19:39:38.880Z,5.20
2022-09-23T19:41:10.443Z,6.07
2022-09-23T19:42:41.983Z,5.57
2022-09-23T19:44:13.600Z,5.05
2022-09-23T19:45:45.201Z,5.97
2022-09-23T19:47:16.856Z,7.10
2022-09-23T19:48:48.804Z,6.88
2022-09-23T19:50:20.396Z,5.50
2022-09-23T19:51:52.014Z,5.55
2022-09-23T19:53:27.896Z,5.43
2022-09-23T19:54:59.994Z,5.50
2022-09-23T19:56:31.815Z,5.50
2022-09-23T19:58:03.597Z,5.93
2022-09-23T19:59:35.366Z,6.00
2022-09-23T20:01:07.219Z,5.68
2022-09-23T20:02:38.827Z,6.25
2022-09-23T20:04:10.525Z,5.50
2022-09-23T20:05:42.213Z,5.10
2022-09-23T20:07:13.742Z,5.30
2022-09-23T20:08:45.482Z,5.38
2022-09-23T20:10:17.057Z,5.00
2022-09-23T20:11:48.679Z,4.53
2022-09-23T20:13:20.439Z,5.32
2022-09-23T20:14:52.108Z,5.22
2022-09-23T20:16:24.073Z,5.50
2022-09-23T20:17:55.706Z,5.25
2022-09-23T20:19:27.447Z,5.07
2022-09-23T20:20:59.065Z,4.20
2022-09-23T20:22:33.663Z,6.10
2022-09-23T20:24:05.447Z,4.50
2022-09-23T20:25:37.192Z,5.03
2022-09-23T20:27:08.830Z,6.97
2022-09-23T20:28:40.645Z,5.40
2022-09-23T20:30:12.708Z,4.77
2022-09-23T20:31:44.610Z,4.72
2022-09-23T20:33:16.340Z,5.30
2022-09-23T20:34:47.968Z,5.22
2022-09-23T20:36:19.561Z,4.78
2022-09-23T20:37:51.111Z,5.18
2022-09-23T20:39:22.763Z,4.47
2022-09-23T20:40:55.430Z,5.55
2022-09-23T20:42:27.125Z,5.00
2022-09-23T20:43:58.671Z,4.75
2022-09-23T20:45:30.305Z,4.45
2022-09-23T20:47:01.943Z,5.07
2022-09-23T20:48:33.557Z,4.57
2022-09-23T20:50:05.390Z,4.38
2022-09-23T20:51:37.153Z,4.32
2022-09-23T20:53:08.708Z,4.30
2022-09-23T20:54:40.613Z,4.88
2022-09-23T20:56:12.153Z,4.60
2022-09-23T20:57:43.758Z,3.85
2022-09-23T20:59:15.304Z,4.50
2022-09-23T21:00:46.998Z,4.88
2022-09-23T21:02:18.619Z,4.47
2022-09-23T21:03:50.332Z,5.15
2022-09-23T21:05:21.884Z,4.05
2022-09-23T21:06:53.934Z,4.57
2022-09-23T21:08:26.092Z,4.55
2022-09-23T21:09:57.637Z,4.30
2022-09-23T21:11:29.298Z,5.13
2022-09-23T21:13:00.868Z,4.75
2022-09-23T21:14:32.461Z,4.20
2022-09-23T21:16:09.746Z,5.20
2022-09-23T21:17:41.448Z,4.78
2022-09-23T21:19:13.061Z,4.15
2022-09-23T21:20:54.174Z,4.50
2022-09-23T21:22:25.828Z,4.57
2022-09-23T21:24:11.747Z,4.65
2022-09-23T21:25:49.353Z,4.50
2022-09-23T21:27:20.920Z,4.35
2022-09-23T21:28:54.003Z,4.10
2022-09-23T21:30:25.597Z,4.15
2022-09-23T21:31:57.290Z,4.32
2022-09-23T21:33:29.076Z,4.82
2022-09-23T21:35:00.707Z,4.35
2022-09-23T21:36:36.019Z,4.00
2022-09-23T21:38:07.669Z,4.82
2022-09-23T21:39:39.229Z,3.70
2022-09-23T21:41:10.828Z,3.97
2022-09-23T21:42:42.371Z,4.68
2022-09-23T21:44:14.000Z,4.10
2022-09-23T21:45:45.562Z,3.80
2022-09-23T21:47:17.198Z,3.67
2022-09-23T21:48:51.067Z,4.03
2022-09-23T21:50:22.693Z,3.55
2022-09-23T21:51:54.260Z,4.38
2022-09-23T21:53:26.560Z,4.07
2022-09-23T21:54:58.133Z,4.07
2022-09-23T21:56:30.851Z,4.30
2022-09-23T21:58:02.408Z,3.90
2022-09-23T21:59:33.977Z,3.85
2022-09-23T22:01:13.867Z,4.40
2022-09-23T22:02:45.484Z,3.30
2022-09-23T22:04:18.065Z,3.60
2022-09-23T22:06:06.598Z,3.65
2022-09-23T22:07:38.226Z,4.03
2022-09-23T22:09:12.853Z,3.72
2022-09-23T22:10:44.542Z,3.73
2022-09-23T22:12:16.175Z,3.55
2022-09-23T22:13:47.871Z,3.30
2022-09-23T22:15:19.510Z,3.45
2022-09-23T22:16:54.312Z,4.60
2022-09-23T22:18:25.906Z,3.70
2022-09-23T22:19:57.481Z,4.00
2022-09-23T22:21:29.812Z,4.15
2022-09-23T22:23:01.363Z,3.88
2022-09-23T22:24:32.934Z,4.00
2022-09-23T22:26:04.460Z,3.13
2022-09-23T22:27:36.090Z,3.38
2022-09-23T22:29:08.601Z,3.50
2022-09-23T22:30:40.259Z,3.63
2022-09-23T22:32:11.932Z,3.90
2022-09-23T22:33:43.638Z,3.40
2022-09-23T22:35:15.858Z,3.63
2022-09-23T22:36:47.627Z,3.97
2022-09-23T22:38:19.201Z,3.47
2022-09-23T22:39:50.959Z,3.70
2022-09-23T22:41:23.472Z,3.65
2022-09-23T22:42:55.031Z,3.47
2022-09-23T22:44:26.611Z,3.50
2022-09-23T22:45:58.253Z,3.60
2022-09-23T22:47:29.907Z,3.70
2022-09-23T22:49:01.669Z,3.53
2022-09-23T22:50:33.383Z,3.40
2022-09-23T22:52:05.169Z,3.72
2022-09-23T22:53:36.742Z,3.85
2022-09-23T22:55:08.849Z,3.63
2022-09-23T22:56:40.433Z,4.15
2022-09-23T22:58:31.116Z,3.50
2022-09-23T23:00:07.730Z,3.67
2022-09-23T23:01:40.702Z,4.28
2022-09-23T23:03:12.437Z,3.65
2022-09-23T23:04:47.606Z,3.38
2022-09-23T23:06:19.266Z,3.60
2022-09-23T23:07:50.907Z,3.53
2022-09-23T23:09:22.501Z,3.90
2022-09-23T23:10:55.138Z,3.42
2022-09-23T23:12:26.783Z,3.45
2022-09-23T23:13:58.393Z,3.17
2022-09-23T23:15:29.928Z,3.30
2022-09-23T23:17:01.508Z,3.08
2022-09-23T23:18:34.035Z,3.15
2022-09-23T23:20:06.259Z,3.13
2022-09-23T23:21:37.805Z,3.28
2022-09-23T23:23:09.437Z,3.20
2022-09-23T23:24:41.218Z,3.53
2022-09-23T23:26:14.561Z,3.10
2022-09-23T23:27:46.118Z,3.53
2022-09-23T23:29:19.446Z,3.22
2022-09-23T23:30:51.039Z,3.63
2022-09-23T23:32:22.825Z,3.40
2022-09-23T23:33:54.497Z,3.28
2022-09-23T23:35:26.155Z,4.05
2022-09-23T23:36:57.728Z,3.30
2022-09-23T23:38:29.377Z,3.40
2022-09-23T23:40:00.992Z,3.17
2022-09-23T23:41:32.567Z,3.70
2022-09-23T23:43:04.128Z,2.92
2022-09-23T23:44:35.686Z,3.45
2022-09-23T23:46:07.339Z,3.15
2022-09-23T23:47:38.993Z,3.13
2022-09-23T23:49:10.543Z,3.55
2022-09-23T23:50:42.150Z,3.30
2022-09-23T23:52:13.680Z,3.13
2022-09-23T23:53:45.249Z,3.30
2022-09-23T23:55:16.823Z,3.35
2022-09-23T23:56:48.383Z,3.93
2022-09-23T23:58:19.936Z,2.65
2022-09-23T23:59:51.543Z,3.15
